Disclaimer

Please do not use the information listed here in-flight or in-navigation, as they are not provided to us by the airports but are provided by volunteers, so they might be outdated.

Search


Regions


Airport information page

Radio informations:
Tower (TWR) - 118.7 MHz
VILLAVICENCIO RD - 3488 MHz
VILLAVICENCIO AP - 119.3 MHz

Airport informations:
Latitude: 04° 10' 04.35" N
Longitude: 073° 36' 49.54" W
Elevation: 1394 feet - 425 meters
Operating hours: Remarks
Operating agency: Civil government, landing fees and diplomatic clearance may be required
Timezone: UTC-5
Fuel: 100/130 MIL Spec, low lead, aviation gasoline (BLUE)

Runway information:
05/23 - 5616 x 98 feet< - >1712 x 30 meters

Recent METARs:
SKVV 182300Z 32004KT 9999 SCT020 SCT090 26/22 A2982
SKVV 182300Z 32004KT 9999 SCT020 SCT090 26/22 A2982
SKVV 182300Z 32004KT 9999 SCT020 SCT090 26/22 A2982

Airport on the map: